Time;durP1;ratioP1;P1;durP2;ratioP2;P2;SDS_P1;SDS_P2;PMS_P1;PMS_P2;Temp;Humidity;BMP_temperature;BMP_pressure;BME280_temperature;BME280_humidity;BME280_pressure;Samples;Min_cycle;Max_cycle;Signal;HPM_P1;HPM_P2
2023/12/02 00:01:45;;;;;;;25.63;10.07;;;;;;;;;;4930672;29;20079;-87
2023/12/02 00:04:11;;;;;;;23.40;9.70;;;;;;;;;;4932942;29;20045;-87
2023/12/02 00:06:36;;;;;;;26.67;10.43;;;;;;;;;;4931896;29;20030;-87
2023/12/02 00:09:01;;;;;;;24.00;10.63;;;;;;;;;;4933971;29;20115;-87
2023/12/02 00:11:27;;;;;;;23.13;10.13;;;;;;;;;;4933748;29;20079;-87
2023/12/02 00:13:52;;;;;;;24.57;9.80;;;;;;;;;;4938582;29;20031;-87
2023/12/02 00:16:18;;;;;;;23.07;9.87;;;;;;;;;;4934020;29;20245;-88
2023/12/02 00:18:43;;;;;;;22.38;9.88;;;;;;;;;;4932429;29;20024;-89
2023/12/02 00:21:08;;;;;;;20.97;9.13;;;;;;;;;;4935676;29;20016;-88
2023/12/02 00:23:34;;;;;;;23.90;9.77;;;;;;;;;;4935070;29;20043;-88
2023/12/02 00:25:59;;;;;;;20.23;9.77;;;;;;;;;;4935524;29;20102;-88
2023/12/02 00:28:24;;;;;;;23.43;10.67;;;;;;;;;;4936255;29;20091;-88
2023/12/02 00:30:50;;;;;;;21.00;8.07;;;;;;;;;;4933570;29;20035;-88
2023/12/02 00:33:15;;;;;;;23.33;9.97;;;;;;;;;;4935552;29;20079;-88
2023/12/02 00:35:40;;;;;;;23.43;10.50;;;;;;;;;;4934267;29;20019;-88
2023/12/02 00:38:05;;;;;;;20.83;8.77;;;;;;;;;;4934771;29;20031;-88
2023/12/02 00:40:30;;;;;;;15.77;7.17;;;;;;;;;;4934349;29;20020;-88
2023/12/02 00:42:56;;;;;;;21.87;9.50;;;;;;;;;;4934763;29;20351;-88
2023/12/02 00:45:21;;;;;;;23.57;9.90;;;;;;;;;;4933738;29;20028;-88
2023/12/02 00:47:46;;;;;;;22.00;9.90;;;;;;;;;;4934176;29;20115;-88
2023/12/02 00:50:11;;;;;;;24.07;10.57;;;;;;;;;;4932543;29;20480;-88
2023/12/02 00:52:37;;;;;;;22.77;9.67;;;;;;;;;;4934327;29;20024;-88
2023/12/02 00:55:02;;;;;;;22.60;10.03;;;;;;;;;;4935290;29;20487;-88
2023/12/02 00:57:27;;;;;;;22.07;9.77;;;;;;;;;;4935406;29;20027;-88
2023/12/02 00:59:52;;;;;;;21.30;9.60;;;;;;;;;;4940646;29;20015;-88
2023/12/02 01:02:17;;;;;;;23.27;9.63;;;;;;;;;;4935927;29;20038;-88
2023/12/02 01:04:43;;;;;;;22.47;10.80;;;;;;;;;;4935283;29;20019;-88
2023/12/02 01:07:09;;;;;;;19.63;9.43;;;;;;;;;;4932875;29;20107;-88
2023/12/02 01:09:34;;;;;;;21.27;9.70;;;;;;;;;;4934524;29;20023;-88
2023/12/02 01:12:00;;;;;;;22.13;10.17;;;;;;;;;;4934169;29;20046;-88
2023/12/02 01:14:25;;;;;;;21.60;9.17;;;;;;;;;;4934623;29;20083;-89
2023/12/02 01:16:51;;;;;;;19.67;9.13;;;;;;;;;;4935369;29;20399;-89
2023/12/02 01:19:16;;;;;;;26.23;9.53;;;;;;;;;;4938276;29;20016;-88
2023/12/02 01:21:41;;;;;;;21.17;9.10;;;;;;;;;;4937290;29;20038;-89
2023/12/02 01:24:06;;;;;;;21.87;9.53;;;;;;;;;;4937495;29;20020;-89
2023/12/02 01:26:32;;;;;;;22.10;10.10;;;;;;;;;;4937717;29;20031;-88
2023/12/02 01:28:58;;;;;;;21.50;9.33;;;;;;;;;;4937513;29;20119;-88
2023/12/02 01:31:23;;;;;;;21.88;9.07;;;;;;;;;;4937970;29;20034;-89
2023/12/02 01:33:48;;;;;;;21.57;9.77;;;;;;;;;;4936631;29;20030;-89
2023/12/02 01:36:13;;;;;;;26.73;11.03;;;;;;;;;;4937922;29;20373;-88
2023/12/02 01:38:38;;;;;;;23.47;9.13;;;;;;;;;;4937909;29;20042;-88
2023/12/02 01:41:04;;;;;;;23.60;9.20;;;;;;;;;;4937086;29;20398;-88
2023/12/02 01:43:29;;;;;;;18.83;7.77;;;;;;;;;;4939058;29;20046;-88
2023/12/02 01:45:55;;;;;;;21.70;9.30;;;;;;;;;;4969158;28;20028;-88
2023/12/02 01:48:21;;;;;;;22.73;9.87;;;;;;;;;;4938228;29;20028;-88
2023/12/02 01:50:47;;;;;;;26.17;10.63;;;;;;;;;;4937840;29;20047;-88
2023/12/02 01:53:12;;;;;;;23.92;10.45;;;;;;;;;;4938385;29;20020;-89
2023/12/02 01:55:37;;;;;;;22.37;9.27;;;;;;;;;;4939698;29;20042;-88
2023/12/02 01:58:02;;;;;;;23.00;9.83;;;;;;;;;;4938267;29;20023;-88
2023/12/02 02:00:28;;;;;;;21.70;9.47;;;;;;;;;;4940748;29;20028;-88
2023/12/02 02:02:53;;;;;;;21.93;9.70;;;;;;;;;;4942167;29;20197;-87
2023/12/02 02:05:18;;;;;;;23.70;10.13;;;;;;;;;;4943043;29;20128;-87
2023/12/02 02:07:43;;;;;;;26.57;10.07;;;;;;;;;;4941887;29;20493;-88
2023/12/02 02:10:09;;;;;;;17.80;9.10;;;;;;;;;;4941876;29;20028;-89
2023/12/02 02:12:34;;;;;;;24.00;10.20;;;;;;;;;;4941243;29;20027;-88
2023/12/02 02:15:00;;;;;;;24.57;11.23;;;;;;;;;;4941267;29;20036;-88
2023/12/02 02:17:25;;;;;;;23.27;10.43;;;;;;;;;;4939830;29;20055;-88
2023/12/02 02:19:50;;;;;;;26.63;10.70;;;;;;;;;;4940719;29;20034;-88
2023/12/02 02:22:15;;;;;;;26.50;10.47;;;;;;;;;;4939058;29;20055;-88
2023/12/02 02:24:40;;;;;;;26.67;10.33;;;;;;;;;;4939076;29;20535;-88
2023/12/02 02:27:05;;;;;;;24.50;9.93;;;;;;;;;;4937881;29;20020;-87
2023/12/02 02:29:31;;;;;;;23.73;10.00;;;;;;;;;;4935297;29;20031;-88
2023/12/02 02:31:57;;;;;;;22.87;9.63;;;;;;;;;;4936402;29;20083;-89
2023/12/02 02:34:22;;;;;;;28.02;10.90;;;;;;;;;;4938083;29;20107;-89
2023/12/02 02:36:48;;;;;;;26.43;10.20;;;;;;;;;;4938352;29;20090;-88
2023/12/02 02:39:13;;;;;;;21.33;9.07;;;;;;;;;;4936703;29;20020;-87
2023/12/02 02:41:38;;;;;;;24.90;10.30;;;;;;;;;;4936271;29;20036;-88
2023/12/02 02:44:04;;;;;;;22.27;10.07;;;;;;;;;;4934955;29;20123;-87
2023/12/02 02:46:29;;;;;;;25.67;10.98;;;;;;;;;;4936453;29;20103;-87
2023/12/02 02:48:54;;;;;;;24.20;9.13;;;;;;;;;;4936347;29;20020;-88
2023/12/02 02:51:19;;;;;;;23.60;10.47;;;;;;;;;;4936019;29;20550;-89
2023/12/02 02:53:44;;;;;;;22.53;9.73;;;;;;;;;;4935894;29;20024;-87
2023/12/02 02:56:10;;;;;;;23.07;9.43;;;;;;;;;;4934504;29;20032;-88
2023/12/02 02:58:36;;;;;;;22.00;9.43;;;;;;;;;;4936629;29;20388;-87
2023/12/02 03:01:02;;;;;;;23.95;11.13;;;;;;;;;;4936314;29;20036;-88
2023/12/02 03:03:28;;;;;;;27.73;10.43;;;;;;;;;;4936406;29;20090;-88
2023/12/02 03:05:53;;;;;;;28.23;10.95;;;;;;;;;;4934892;29;20107;-88
2023/12/02 03:08:18;;;;;;;25.03;10.30;;;;;;;;;;4936691;29;20032;-88
2023/12/02 03:10:47;;;;;;;24.37;10.07;;;;;;;;;;4936976;29;20027;-88
2023/12/02 03:13:12;;;;;;;21.63;9.73;;;;;;;;;;4934184;29;20443;-88
2023/12/02 03:15:37;;;;;;;23.50;9.87;;;;;;;;;;4938994;29;20051;-89
2023/12/02 03:18:03;;;;;;;22.87;9.60;;;;;;;;;;4940153;29;20051;-88
2023/12/02 03:20:28;;;;;;;24.37;10.33;;;;;;;;;;4936880;29;20054;-88
2023/12/02 03:22:54;;;;;;;25.23;10.23;;;;;;;;;;4937439;29;20060;-88
2023/12/02 03:25:19;;;;;;;23.43;10.37;;;;;;;;;;4936886;29;20031;-88
2023/12/02 03:27:44;;;;;;;21.97;9.93;;;;;;;;;;4935855;29;20049;-88
2023/12/02 03:30:10;;;;;;;24.00;10.83;;;;;;;;;;4935419;29;20008;-88
2023/12/02 03:32:38;;;;;;;23.27;10.53;;;;;;;;;;4936584;29;20055;-88
2023/12/02 03:35:03;;;;;;;26.95;10.77;;;;;;;;;;4935137;29;20031;-87
2023/12/02 03:37:29;;;;;;;22.13;10.07;;;;;;;;;;4936147;29;20036;-89
2023/12/02 03:39:54;;;;;;;23.27;9.80;;;;;;;;;;4932536;29;20506;-88
2023/12/02 03:42:19;;;;;;;24.53;10.37;;;;;;;;;;4934202;29;20091;-88
2023/12/02 03:44:45;;;;;;;24.93;10.30;;;;;;;;;;4932623;29;20028;-88
2023/12/02 03:47:10;;;;;;;23.60;10.20;;;;;;;;;;4930719;29;20067;-88
2023/12/02 03:49:35;;;;;;;26.33;10.33;;;;;;;;;;4933883;29;20023;-88
2023/12/02 03:52:00;;;;;;;23.33;9.50;;;;;;;;;;4934833;28;20020;-88
2023/12/02 03:54:26;;;;;;;25.97;10.73;;;;;;;;;;4928704;29;20032;-88
2023/12/02 03:56:51;;;;;;;22.60;10.57;;;;;;;;;;4935174;29;20071;-88
2023/12/02 03:59:17;;;;;;;22.83;10.27;;;;;;;;;;4933919;29;20107;-88
2023/12/02 04:01:42;;;;;;;18.63;8.53;;;;;;;;;;4933439;29;20019;-88
2023/12/02 04:04:08;;;;;;;23.30;10.60;;;;;;;;;;4922835;29;20548;-87
2023/12/02 04:06:33;;;;;;;19.73;9.13;;;;;;;;;;4927391;29;20498;-88
2023/12/02 04:08:59;;;;;;;20.53;9.43;;;;;;;;;;4931128;29;20023;-87
2023/12/02 04:11:24;;;;;;;22.90;9.23;;;;;;;;;;4932949;29;20495;-88
2023/12/02 04:13:49;;;;;;;23.43;9.93;;;;;;;;;;4941114;29;20036;-88
2023/12/02 04:16:14;;;;;;;21.53;10.23;;;;;;;;;;4934139;29;20459;-88
2023/12/02 04:18:40;;;;;;;20.08;9.60;;;;;;;;;;4933512;29;20023;-88
2023/12/02 04:21:06;;;;;;;21.80;9.83;;;;;;;;;;4932404;29;20020;-88
2023/12/02 04:23:31;;;;;;;20.20;8.87;;;;;;;;;;4931778;29;20028;-87
2023/12/02 04:25:56;;;;;;;22.80;10.13;;;;;;;;;;4932105;29;20067;-88
2023/12/02 04:28:21;;;;;;;18.23;9.00;;;;;;;;;;4932842;29;20424;-88
2023/12/02 04:30:46;;;;;;;19.60;8.80;;;;;;;;;;4933027;29;20024;-88
2023/12/02 04:33:11;;;;;;;25.63;10.50;;;;;;;;;;4932271;29;20020;-88
2023/12/02 04:35:37;;;;;;;23.00;10.30;;;;;;;;;;4932741;29;20039;-88
2023/12/02 04:38:04;;;;;;;20.10;9.13;;;;;;;;;;4930925;29;20016;-88
2023/12/02 04:40:30;;;;;;;19.33;8.57;;;;;;;;;;4914176;29;20020;-87
2023/12/02 04:42:55;;;;;;;20.88;8.50;;;;;;;;;;4926393;29;20090;-87
2023/12/02 04:45:20;;;;;;;22.10;10.50;;;;;;;;;;4934154;29;20023;-88
2023/12/02 04:47:45;;;;;;;21.13;9.40;;;;;;;;;;4933929;29;20488;-88
2023/12/02 04:50:10;;;;;;;24.23;9.80;;;;;;;;;;4932313;29;20019;-88
2023/12/02 04:52:36;;;;;;;23.63;10.27;;;;;;;;;;4933479;29;20099;-88
2023/12/02 04:55:01;;;;;;;23.10;9.83;;;;;;;;;;4934856;29;20051;-92
2023/12/02 04:57:27;;;;;;;20.27;9.27;;;;;;;;;;4938205;29;20028;-93
2023/12/02 04:59:52;;;;;;;24.20;10.50;;;;;;;;;;4936683;29;20103;-94
2023/12/02 05:02:21;;;;;;;21.83;9.97;;;;;;;;;;4935487;29;20101;-93
2023/12/02 05:04:46;;;;;;;21.45;10.05;;;;;;;;;;4948337;28;20514;-89
2023/12/02 05:07:12;;;;;;;22.03;9.73;;;;;;;;;;4932879;29;20032;-90
2023/12/02 05:09:37;;;;;;;22.57;9.33;;;;;;;;;;4932321;29;20031;-89
2023/12/02 05:12:02;;;;;;;23.48;10.32;;;;;;;;;;4930721;29;20420;-90
2023/12/02 05:14:27;;;;;;;24.53;10.30;;;;;;;;;;4931287;29;20103;-89
2023/12/02 05:16:53;;;;;;;21.73;10.07;;;;;;;;;;4932297;29;20024;-89
2023/12/02 05:19:18;;;;;;;21.97;9.27;;;;;;;;;;4933021;29;20062;-89
2023/12/02 05:21:43;;;;;;;25.23;10.57;;;;;;;;;;4931387;29;20076;-89
2023/12/02 05:24:08;;;;;;;26.30;10.27;;;;;;;;;;4933143;29;20043;-89
2023/12/02 05:26:35;;;;;;;22.63;10.20;;;;;;;;;;4933047;29;20062;-90
2023/12/02 05:29:01;;;;;;;21.13;10.20;;;;;;;;;;4930839;29;20030;-89
2023/12/02 05:31:26;;;;;;;21.87;9.63;;;;;;;;;;4931633;29;20028;-89
2023/12/02 05:33:52;;;;;;;20.67;8.83;;;;;;;;;;4932929;29;20016;-89
2023/12/02 05:36:18;;;;;;;21.97;9.27;;;;;;;;;;4932413;29;20441;-90
2023/12/02 05:38:43;;;;;;;25.00;9.82;;;;;;;;;;4933465;29;20035;-88
2023/12/02 05:41:09;;;;;;;23.70;10.30;;;;;;;;;;4931924;29;20036;-89
2023/12/02 05:43:34;;;;;;;24.05;10.10;;;;;;;;;;4932665;29;20034;-90
2023/12/02 05:46:00;;;;;;;24.13;10.37;;;;;;;;;;4929931;29;20020;-88
2023/12/02 05:48:25;;;;;;;24.07;11.00;;;;;;;;;;4939937;29;20047;-88
2023/12/02 05:50:50;;;;;;;23.80;10.23;;;;;;;;;;4958745;28;20030;-88
2023/12/02 05:53:15;;;;;;;21.47;9.63;;;;;;;;;;4932170;29;20032;-90
2023/12/02 05:55:40;;;;;;;25.17;10.97;;;;;;;;;;4928580;29;20058;-88
2023/12/02 05:58:06;;;;;;;21.00;9.60;;;;;;;;;;4931292;29;20020;-87
2023/12/02 06:00:32;;;;;;;21.00;10.03;;;;;;;;;;4931573;29;20016;-89
2023/12/02 06:02:57;;;;;;;23.50;10.67;;;;;;;;;;4934008;29;20028;-88
2023/12/02 06:05:22;;;;;;;23.83;10.43;;;;;;;;;;4935915;29;20411;-88
2023/12/02 06:07:47;;;;;;;22.52;10.00;;;;;;;;;;4933824;29;20448;-90
2023/12/02 06:10:13;;;;;;;23.80;10.53;;;;;;;;;;4935032;29;20123;-89
2023/12/02 06:12:38;;;;;;;23.67;9.50;;;;;;;;;;4936452;29;20027;-88
2023/12/02 06:15:03;;;;;;;24.50;9.90;;;;;;;;;;4938038;29;20034;-90
2023/12/02 06:17:29;;;;;;;22.50;10.07;;;;;;;;;;4933314;29;20047;-87
2023/12/02 06:19:54;;;;;;;29.00;11.20;;;;;;;;;;4932073;29;20027;-87
2023/12/02 06:22:19;;;;;;;29.43;12.57;;;;;;;;;;4935263;29;20031;-87
2023/12/02 06:24:45;;;;;;;33.27;15.23;;;;;;;;;;4934849;29;20107;-88
2023/12/02 06:27:10;;;;;;;28.80;12.27;;;;;;;;;;4935679;29;20034;-88
2023/12/02 06:29:35;;;;;;;25.60;10.97;;;;;;;;;;4934657;29;20395;-88
2023/12/02 06:32:00;;;;;;;23.60;10.33;;;;;;;;;;4934325;29;20023;-89
2023/12/02 06:34:25;;;;;;;25.73;10.60;;;;;;;;;;4933251;29;20055;-89
2023/12/02 06:36:51;;;;;;;26.73;11.17;;;;;;;;;;4933766;29;20032;-87
2023/12/02 06:39:16;;;;;;;28.37;11.13;;;;;;;;;;4934942;29;20026;-88
2023/12/02 06:41:41;;;;;;;25.90;10.43;;;;;;;;;;4934473;29;20031;-87
2023/12/02 06:44:09;;;;;;;21.13;9.87;;;;;;;;;;4934186;29;20036;-88
2023/12/02 06:46:35;;;;;;;25.48;11.38;;;;;;;;;;4933171;29;20054;-88
2023/12/02 06:49:00;;;;;;;33.33;13.57;;;;;;;;;;4932931;29;20566;-87
2023/12/02 06:51:28;;;;;;;26.97;12.10;;;;;;;;;;4934993;29;20169;-88
2023/12/02 06:53:55;;;;;;;24.48;10.93;;;;;;;;;;4934170;29;20030;-88
2023/12/02 06:56:21;;;;;;;25.92;10.85;;;;;;;;;;4929939;29;20027;-88
2023/12/02 06:58:48;;;;;;;23.88;10.40;;;;;;;;;;4933879;29;20452;-88
2023/12/02 07:01:24;;;;;;;24.35;11.02;;;;;;;;;;4932931;29;20373;-88
2023/12/02 07:03:49;;;;;;;25.10;11.07;;;;;;;;;;4931857;29;20633;-87
2023/12/02 07:06:15;;;;;;;26.87;12.27;;;;;;;;;;4934222;29;20031;-87
2023/12/02 07:08:40;;;;;;;27.83;11.63;;;;;;;;;;4933904;29;20095;-87
2023/12/02 07:11:05;;;;;;;24.30;11.23;;;;;;;;;;4929128;29;20019;-87
2023/12/02 07:13:31;;;;;;;25.73;10.90;;;;;;;;;;4934093;29;20031;-87
2023/12/02 07:15:56;;;;;;;27.73;12.57;;;;;;;;;;4936430;29;20374;-87
2023/12/02 07:18:21;;;;;;;23.40;10.83;;;;;;;;;;4933667;28;20158;-88
2023/12/02 07:20:46;;;;;;;25.70;11.40;;;;;;;;;;4933867;29;20075;-87
2023/12/02 07:23:11;;;;;;;27.33;11.77;;;;;;;;;;4934389;29;20039;-87
2023/12/02 07:25:37;;;;;;;26.47;11.80;;;;;;;;;;4938235;29;20028;-87
2023/12/02 07:28:03;;;;;;;25.50;11.60;;;;;;;;;;4934365;29;20131;-87
2023/12/02 07:30:28;;;;;;;28.57;11.60;;;;;;;;;;4934868;29;20507;-87
2023/12/02 07:32:53;;;;;;;26.63;11.80;;;;;;;;;;4939968;29;20167;-87
2023/12/02 07:35:19;;;;;;;28.60;11.57;;;;;;;;;;4937941;29;20038;-87
2023/12/02 07:37:47;;;;;;;26.90;11.05;;;;;;;;;;4933419;29;20024;-87
2023/12/02 07:40:12;;;;;;;26.30;11.55;;;;;;;;;;4933389;29;20019;-87
2023/12/02 07:42:38;;;;;;;28.23;11.27;;;;;;;;;;4931525;29;20475;-87
2023/12/02 07:45:04;;;;;;;27.92;11.80;;;;;;;;;;4933919;29;20028;-86
2023/12/02 07:47:30;;;;;;;28.67;12.80;;;;;;;;;;4930032;29;20092;-86
2023/12/02 07:49:57;;;;;;;28.17;12.90;;;;;;;;;;4934106;28;20028;-87
2023/12/02 07:52:22;;;;;;;29.50;12.27;;;;;;;;;;4934307;29;20030;-86
2023/12/02 07:54:48;;;;;;;29.00;11.90;;;;;;;;;;4932038;29;20387;-85
2023/12/02 07:57:13;;;;;;;28.60;11.93;;;;;;;;;;4932483;29;20402;-85
2023/12/02 07:59:39;;;;;;;27.30;11.60;;;;;;;;;;4933353;29;21030;-86
2023/12/02 08:02:04;;;;;;;29.60;11.67;;;;;;;;;;4931589;29;20039;-84
2023/12/02 08:04:30;;;;;;;26.13;11.23;;;;;;;;;;4932763;29;20074;-85
2023/12/02 08:06:55;;;;;;;32.00;11.80;;;;;;;;;;4932144;29;20384;-85
2023/12/02 08:09:20;;;;;;;30.30;12.47;;;;;;;;;;4932233;29;20027;-88
2023/12/02 08:11:46;;;;;;;28.90;11.47;;;;;;;;;;4931672;29;20028;-88
2023/12/02 08:14:12;;;;;;;35.00;12.77;;;;;;;;;;4932414;29;20020;-84
2023/12/02 08:16:38;;;;;;;29.52;12.10;;;;;;;;;;4930538;29;20094;-83
2023/12/02 08:19:03;;;;;;;29.03;11.97;;;;;;;;;;4932104;29;20110;-83
2023/12/02 08:21:28;;;;;;;30.33;12.40;;;;;;;;;;4929924;29;20027;-83
2023/12/02 08:23:53;;;;;;;31.90;12.43;;;;;;;;;;4930667;29;20202;-83
2023/12/02 08:26:18;;;;;;;29.40;12.90;;;;;;;;;;4930573;29;20020;-82
2023/12/02 08:28:46;;;;;;;31.40;13.00;;;;;;;;;;4932079;29;20032;-82
2023/12/02 08:31:12;;;;;;;33.92;13.27;;;;;;;;;;4929791;29;20110;-82
2023/12/02 08:33:37;;;;;;;31.93;12.60;;;;;;;;;;4927292;29;20028;-81
2023/12/02 08:36:03;;;;;;;28.20;11.87;;;;;;;;;;4930447;29;20509;-81
2023/12/02 08:38:28;;;;;;;34.30;13.35;;;;;;;;;;4932632;29;20087;-81
2023/12/02 08:40:54;;;;;;;28.60;11.60;;;;;;;;;;4930850;29;20027;-81
2023/12/02 08:43:19;;;;;;;35.73;12.80;;;;;;;;;;4932094;29;20118;-83
2023/12/02 08:45:45;;;;;;;32.77;12.57;;;;;;;;;;4931182;29;20024;-83
2023/12/02 08:48:10;;;;;;;29.42;12.95;;;;;;;;;;4930487;29;20432;-84
2023/12/02 08:50:36;;;;;;;32.93;12.73;;;;;;;;;;4929281;29;20016;-81
2023/12/02 08:53:01;;;;;;;31.87;12.57;;;;;;;;;;4922976;29;20032;-83
2023/12/02 08:55:26;;;;;;;28.33;12.10;;;;;;;;;;4930091;29;20062;-83
2023/12/02 08:57:51;;;;;;;28.70;11.50;;;;;;;;;;4930300;29;20079;-83
2023/12/02 09:00:17;;;;;;;31.77;12.90;;;;;;;;;;4930956;29;20403;-83
2023/12/02 09:02:42;;;;;;;32.67;13.95;;;;;;;;;;4931013;29;20111;-84
2023/12/02 09:05:08;;;;;;;31.60;13.10;;;;;;;;;;4931538;29;20490;-82
2023/12/02 09:07:33;;;;;;;30.10;13.20;;;;;;;;;;4930050;29;20016;-85
2023/12/02 09:09:58;;;;;;;31.90;12.70;;;;;;;;;;4929695;29;20106;-85
2023/12/02 09:12:24;;;;;;;35.55;13.35;;;;;;;;;;4932492;29;20016;-86
2023/12/02 09:15:28;;;;;;;30.27;13.67;;;;;;;;;;4929805;29;20445;-88
2023/12/02 09:18:07;;;;;;;31.35;12.38;;;;;;;;;;4926509;29;20094;-86
2023/12/02 09:20:33;;;;;;;34.05;12.85;;;;;;;;;;4928419;29;20099;-86
2023/12/02 09:23:00;;;;;;;29.20;13.03;;;;;;;;;;4932373;29;20040;-88
2023/12/02 09:25:27;;;;;;;30.33;12.43;;;;;;;;;;4932517;29;20032;-89
2023/12/02 09:28:05;;;;;;;28.30;12.35;;;;;;;;;;4932105;29;20028;-87
2023/12/02 09:30:34;;;;;;;28.67;12.67;;;;;;;;;;4941301;29;20391;-87
2023/12/02 09:33:00;;;;;;;32.63;12.83;;;;;;;;;;4931350;29;20287;-87
2023/12/02 09:35:25;;;;;;;32.35;12.45;;;;;;;;;;4936684;29;20501;-86
2023/12/02 09:37:57;;;;;;;32.30;12.30;;;;;;;;;;4931244;29;20040;-86
2023/12/02 09:40:23;;;;;;;31.15;13.38;;;;;;;;;;4935595;29;20020;-86
2023/12/02 09:42:57;;;;;;;30.30;13.05;;;;;;;;;;4934261;29;20150;-86
2023/12/02 09:45:24;;;;;;;32.40;13.85;;;;;;;;;;4935598;29;20027;-86
2023/12/02 09:47:54;;;;;;;30.50;13.23;;;;;;;;;;4936228;29;20110;-87
2023/12/02 09:50:21;;;;;;;31.58;12.93;;;;;;;;;;4934055;29;20118;-87
2023/12/02 09:52:49;;;;;;;33.50;13.75;;;;;;;;;;4931658;29;20036;-87
2023/12/02 09:55:21;;;;;;;32.75;13.40;;;;;;;;;;4934235;29;20035;-86
2023/12/02 09:57:55;;;;;;;33.72;13.32;;;;;;;;;;4937505;29;20118;-86
2023/12/02 10:00:21;;;;;;;33.53;13.63;;;;;;;;;;4931873;29;20088;-87
2023/12/02 10:03:06;;;;;;;39.40;13.85;;;;;;;;;;4935073;29;20035;-86
2023/12/02 10:05:40;;;;;;;32.50;13.82;;;;;;;;;;4936694;29;20016;-87
2023/12/02 10:08:05;;;;;;;33.85;14.43;;;;;;;;;;4935972;29;20043;-86
2023/12/02 10:10:37;;;;;;;33.53;13.47;;;;;;;;;;4929704;29;20021;-86
2023/12/02 10:13:05;;;;;;;33.92;13.98;;;;;;;;;;4935392;29;20039;-87
2023/12/02 10:15:32;;;;;;;34.90;14.70;;;;;;;;;;4936834;29;20055;-87
2023/12/02 10:17:59;;;;;;;34.67;14.02;;;;;;;;;;4935118;29;20118;-87
2023/12/02 10:20:26;;;;;;;31.75;13.85;;;;;;;;;;4937292;29;20150;-87
2023/12/02 10:23:27;;;;;;;38.83;14.27;;;;;;;;;;4936467;29;20439;-87
2023/12/02 10:26:08;;;;;;;32.67;13.98;;;;;;;;;;4935957;29;20035;-87
2023/12/02 10:28:36;;;;;;;32.17;13.57;;;;;;;;;;4936782;29;20071;-86
2023/12/02 10:31:04;;;;;;;33.40;13.25;;;;;;;;;;4936053;29;20023;-84
2023/12/02 10:33:38;;;;;;;32.35;13.45;;;;;;;;;;4936799;29;20028;-85
2023/12/02 10:36:05;;;;;;;32.60;14.02;;;;;;;;;;4932970;29;20032;-85
2023/12/02 10:38:39;;;;;;;32.88;13.88;;;;;;;;;;4938214;29;20031;-88
2023/12/02 10:41:08;;;;;;;35.70;13.83;;;;;;;;;;4942647;29;20020;-87
2023/12/02 10:43:40;;;;;;;30.00;13.10;;;;;;;;;;4944659;29;20051;-88
2023/12/02 10:46:06;;;;;;;35.85;14.85;;;;;;;;;;4938056;29;20031;-87
2023/12/02 10:48:31;;;;;;;32.23;13.60;;;;;;;;;;4936625;29;20379;-87
2023/12/02 10:50:56;;;;;;;31.70;13.38;;;;;;;;;;4932197;29;20200;-86
2023/12/02 10:53:22;;;;;;;33.73;14.57;;;;;;;;;;4934804;29;20024;-85
2023/12/02 10:55:51;;;;;;;39.30;14.35;;;;;;;;;;4933787;29;20027;-85
2023/12/02 10:58:17;;;;;;;30.37;13.03;;;;;;;;;;4933892;29;20028;-84
2023/12/02 11:00:46;;;;;;;31.40;14.48;;;;;;;;;;4934689;29;20020;-85
2023/12/02 11:03:14;;;;;;;31.20;13.52;;;;;;;;;;4933847;29;20024;-85
2023/12/02 11:06:05;;;;;;;34.30;14.30;;;;;;;;;;4933807;29;20038;-85
2023/12/02 11:08:44;;;;;;;38.78;14.77;;;;;;;;;;4933988;29;20479;-84
2023/12/02 11:11:11;;;;;;;35.55;16.02;;;;;;;;;;4934152;29;20051;-84
2023/12/02 11:13:38;;;;;;;31.48;14.02;;;;;;;;;;4935307;29;20062;-85
2023/12/02 11:16:25;;;;;;;33.33;13.55;;;;;;;;;;4933435;29;20031;-85
2023/12/02 11:19:10;;;;;;;31.33;13.60;;;;;;;;;;4941454;28;20142;-85
2023/12/02 11:21:39;;;;;;;31.73;13.13;;;;;;;;;;4932658;29;20392;-86
2023/12/02 11:24:09;;;;;;;32.17;14.07;;;;;;;;;;4937502;29;20067;-87
2023/12/02 11:26:41;;;;;;;31.80;12.52;;;;;;;;;;4940045;29;20126;-85
2023/12/02 11:29:25;;;;;;;35.58;14.13;;;;;;;;;;4933062;29;20502;-85
2023/12/02 11:32:09;;;;;;;34.23;12.83;;;;;;;;;;4933333;29;20427;-85
2023/12/02 11:34:43;;;;;;;30.65;13.25;;;;;;;;;;4934481;29;20032;-84
2023/12/02 11:37:17;;;;;;;36.58;14.20;;;;;;;;;;4934714;29;20057;-85
2023/12/02 11:39:51;;;;;;;30.67;12.82;;;;;;;;;;4934517;29;20031;-85
2023/12/02 11:42:17;;;;;;;31.70;14.52;;;;;;;;;;4935485;29;20052;-86
2023/12/02 11:45:02;;;;;;;32.27;13.80;;;;;;;;;;4936395;29;20391;-86
2023/12/02 11:47:55;;;;;;;30.90;13.40;;;;;;;;;;4934890;29;20619;-86
2023/12/02 11:50:26;;;;;;;35.35;14.55;;;;;;;;;;4931200;29;20050;-85
2023/12/02 11:52:51;;;;;;;34.22;13.88;;;;;;;;;;4931512;29;20403;-86
2023/12/02 11:55:25;;;;;;;32.53;13.13;;;;;;;;;;4931068;29;20030;-86
2023/12/02 11:58:03;;;;;;;29.17;12.50;;;;;;;;;;4933158;29;20019;-86
2023/12/02 12:00:39;;;;;;;31.00;13.23;;;;;;;;;;4935533;29;20498;-85
2023/12/02 12:03:22;;;;;;;28.90;13.17;;;;;;;;;;4934278;29;20074;-86
2023/12/02 12:06:06;;;;;;;25.75;12.05;;;;;;;;;;4936105;29;20028;-86
2023/12/02 12:08:41;;;;;;;28.33;12.77;;;;;;;;;;4934589;29;20036;-86
2023/12/02 12:11:08;;;;;;;30.10;13.13;;;;;;;;;;4933026;29;20038;-85
2023/12/02 12:13:34;;;;;;;27.92;12.02;;;;;;;;;;4935314;29;20019;-86
2023/12/02 12:15:59;;;;;;;31.77;12.77;;;;;;;;;;4936032;29;20031;-86
2023/12/02 12:18:24;;;;;;;30.47;13.30;;;;;;;;;;4943926;29;20036;-86
2023/12/02 12:20:55;;;;;;;29.20;12.33;;;;;;;;;;4953984;29;20038;-87
2023/12/02 12:23:22;;;;;;;32.40;13.00;;;;;;;;;;4953937;29;20008;-86
2023/12/02 12:25:47;;;;;;;27.95;12.57;;;;;;;;;;4951719;29;20089;-87
2023/12/02 12:28:13;;;;;;;28.57;12.07;;;;;;;;;;4975194;28;20556;-86
2023/12/02 12:30:43;;;;;;;29.35;13.20;;;;;;;;;;4955872;28;20054;-85
2023/12/02 12:33:11;;;;;;;30.15;13.43;;;;;;;;;;4955929;29;20084;-85
2023/12/02 12:35:36;;;;;;;29.73;12.57;;;;;;;;;;4955075;29;20019;-87
2023/12/02 12:38:01;;;;;;;31.43;12.97;;;;;;;;;;4957112;28;20314;-86
2023/12/02 12:40:27;;;;;;;28.33;11.77;;;;;;;;;;4957153;29;20016;-86
2023/12/02 12:42:52;;;;;;;28.33;12.93;;;;;;;;;;4955747;29;20023;-87
2023/12/02 12:45:17;;;;;;;30.07;12.70;;;;;;;;;;4955623;29;20031;-85
2023/12/02 12:47:42;;;;;;;28.23;12.30;;;;;;;;;;4952009;29;20019;-86
2023/12/02 12:50:11;;;;;;;27.97;12.43;;;;;;;;;;4946316;29;20054;-85
2023/12/02 12:52:41;;;;;;;30.20;12.38;;;;;;;;;;4942775;29;20023;-86
2023/12/02 12:55:07;;;;;;;30.17;13.27;;;;;;;;;;4941354;29;20034;-85
2023/12/02 12:57:51;;;;;;;30.45;13.13;;;;;;;;;;4941376;29;20059;-85
2023/12/02 13:00:18;;;;;;;28.47;11.57;;;;;;;;;;4952431;29;20031;-87
2023/12/02 13:02:52;;;;;;;31.80;12.13;;;;;;;;;;4955330;29;20039;-86
2023/12/02 13:05:17;;;;;;;31.92;13.20;;;;;;;;;;4952350;29;20011;-86
2023/12/02 13:08:03;;;;;;;31.70;12.97;;;;;;;;;;4954231;29;20027;-85
2023/12/02 13:10:31;;;;;;;32.10;13.03;;;;;;;;;;4953368;29;20621;-86
2023/12/02 13:12:58;;;;;;;30.58;11.93;;;;;;;;;;4954900;29;20008;-86
2023/12/02 13:15:23;;;;;;;27.92;12.63;;;;;;;;;;4954522;29;20019;-86
2023/12/02 13:17:50;;;;;;;28.83;12.20;;;;;;;;;;4947834;29;20042;-86
2023/12/02 13:20:16;;;;;;;30.80;13.23;;;;;;;;;;4945406;29;20016;-86
2023/12/02 13:22:42;;;;;;;29.92;12.35;;;;;;;;;;4954869;29;20004;-85
2023/12/02 13:25:20;;;;;;;29.67;13.50;;;;;;;;;;4954702;29;20016;-86
2023/12/02 13:28:08;;;;;;;33.97;13.70;;;;;;;;;;4952272;29;20480;-85
2023/12/02 13:30:35;;;;;;;31.33;13.63;;;;;;;;;;4946870;28;20295;-87
2023/12/02 13:33:06;;;;;;;31.25;13.10;;;;;;;;;;4955336;29;20008;-87
2023/12/02 13:35:34;;;;;;;32.03;13.65;;;;;;;;;;4956005;29;20028;-87
2023/12/02 13:38:12;;;;;;;29.15;12.18;;;;;;;;;;4956992;28;20064;-88
2023/12/02 13:40:40;;;;;;;30.67;12.52;;;;;;;;;;4953532;28;20118;-87
2023/12/02 13:43:08;;;;;;;30.67;13.27;;;;;;;;;;4954800;29;20031;-88
2023/12/02 13:45:36;;;;;;;28.63;13.07;;;;;;;;;;4956364;29;19996;-87
2023/12/02 13:48:04;;;;;;;30.95;13.60;;;;;;;;;;4956462;29;20084;-87
2023/12/02 13:50:32;;;;;;;28.13;12.90;;;;;;;;;;4947417;29;20024;-86
2023/12/02 13:52:57;;;;;;;33.25;14.07;;;;;;;;;;4950569;29;20020;-87
2023/12/02 13:55:39;;;;;;;31.27;13.33;;;;;;;;;;4955226;28;20031;-88
2023/12/02 13:58:20;;;;;;;30.60;12.87;;;;;;;;;;4955570;28;20035;-88
2023/12/02 14:01:05;;;;;;;26.77;12.57;;;;;;;;;;4952957;29;20263;-87
2023/12/02 14:03:48;;;;;;;31.80;12.95;;;;;;;;;;4954364;29;20032;-88
2023/12/02 14:06:13;;;;;;;34.50;13.25;;;;;;;;;;4934102;29;20024;-88
2023/12/02 14:08:39;;;;;;;32.83;12.90;;;;;;;;;;4942246;29;20023;-90
2023/12/02 14:11:06;;;;;;;32.47;14.30;;;;;;;;;;4933137;29;20020;-89
2023/12/02 14:13:42;;;;;;;30.10;13.32;;;;;;;;;;4929275;29;20028;-89
2023/12/02 14:16:08;;;;;;;31.70;13.52;;;;;;;;;;4932304;29;20063;-90
2023/12/02 14:18:57;;;;;;;32.03;13.23;;;;;;;;;;4932313;29;20071;-89
2023/12/02 14:21:22;;;;;;;33.38;13.48;;;;;;;;;;4930315;29;20447;-89
2023/12/02 14:23:50;;;;;;;28.97;12.20;;;;;;;;;;4932287;29;20039;-89